This is the latest recevied weather packets stored in our database for station/object KD2FGL-13. If no packets are shown the sender has not sent any weather packets the latest 10 day(s).
| Time | Temp. | Humidity | Pressure | Rain* | Wind** | Luminosity | Snow |
|---|---|---|---|---|---|---|---|
| 1787888710 | 22.78° C | 58% | 1018.2 hPa | 0 mm | - | - | - |
| 1787888406 | 22.78° C | 58% | 1018.2 hPa | 0 mm | - | - | - |
| 1787887190 | 22.78° C | 58% | 1018.1 hPa | 0 mm | - | - | - |
| 1787865916 | 26.67° C | 51% | 1017.4 hPa | 0 mm | - | - | - |
| 1787865003 | 26.67° C | 51% | 1017.5 hPa | 0 mm | - | - | - |
| 1787864396 | 26.67° C | 51% | 1017.7 hPa | 0 mm | - | - | - |
| 1787864092 | 26.67° C | 51% | 1017.7 hPa | 0 mm | - | - | - |
| 1787863788 | 26.67° C | 51% | 1017.9 hPa | 0 mm | - | - | - |
| 1787862876 | 27.22° C | 51% | 1017.8 hPa | 0 mm | - | - | - |
| 1787862268 | 27.22° C | 51% | 1018 hPa | 0 mm | - | - | - |
| 1787861964 | 27.22° C | 51% | 1018 hPa | 0 mm | - | - | - |
| 1787861053 | 27.22° C | 51% | 1017.9 hPa | 0 mm | - | - | - |
| 1787860749 | 26.67° C | 51% | 1017.8 hPa | 0 mm | - | - | - |
| 1787859838 | 26.67° C | 51% | 1018 hPa | 0 mm | - | - | - |
| 1787859533 | 26.67° C | 51% | 1018 hPa | 0 mm | - | - | - |
| 1787859229 | 26.67° C | 50% | 1018.2 hPa | 0 mm | - | - | - |
| 1787858621 | 26.67° C | 50% | 1018.6 hPa | 0 mm | - | - | - |
| 1787856494 | 27.22° C | 49% | 1018.7 hPa | 0 mm | - | - | - |
| 1787855582 | 27.78° C | 49% | 1018.5 hPa | 0 mm | - | - | - |
| 1787854064 | 27.78° C | 51% | 1018.2 hPa | 0 mm | - | - | - |
| 1787853151 | 27.22° C | 52% | 1018.2 hPa | 0 mm | - | - | - |
| 1787851935 | 26.67° C | 54% | 1018.3 hPa | 0 mm | - | - | - |
| 1787850719 | 25.56° C | 56% | 1018.3 hPa | 0 mm | - | - | - |
| 1787849808 | 25° C | 57% | 1018.5 hPa | 0 mm | - | - | - |
| 1787848595 | 23.89° C | 59% | 1019.1 hPa | 0 mm | - | - | - |
* Rain since midnight (hover to see other rain measurements)
** Current wind speed in m/s (hover to see current wind gust speed)